オークランド国際空港の過去48時間の天気

オークランド国際空港 (Auckland Airport)

現在時刻: 7/5 16:33 NZST (7/5 04:33 UTC) 以下の時間は現地時間です。

過去48時間のMETAR気象情報
時間 風向 風速(m/s) 視程 気温(℃) 湿度(%) 気圧(hPa) 天気現象
5 16:00 北東 6 8000m 13 94 1019
5 15:30 北北東 5 9000m 13 94 1019
5 15:00 5 9000m 14 94 1020 弱い雨
5 14:30 5 8000m 14 94 1020 弱い雨
5 14:00 北北東 5 9000m 14 94 1021
5 13:30 北東 4 10km以上 14 94 1021 弱い雨
5 13:00 北北東 5 10km以上 14 88 1022 弱い雨
5 12:30 北東 4 10km以上 14 88 1022
5 12:00 東北東 5 10km以上 13 94 1022 弱い雨
5 11:30 北東 2 10km以上 13 94 1024 弱い雨
5 11:00 1 10km以上 12 94 1024 弱い雨
5 10:30 南南東 1 10km以上 12 94 1024 弱い雨
5 10:00 南西 2 10km以上 12 94 1025
5 09:30 1 10km以上 12 88 1024
5 09:00 北北西 1 10km以上 11 94 1024 弱い雨
5 08:30 1 10km以上 11 87 1024
5 08:00 北北東 1 10km以上 10 94 1024
5 07:30 北東 1 10km以上 10 94 1025
NZAA 050400Z AUTO 04011KT 8000 RA FEW008/// SCT012/// BKN017/// 13/12 Q1019 BECMG 9999 -RA TEMPO 4000 RA BKN008
NZAA 050330Z AUTO 02010KT 9000 RA FEW017/// BKN036/// BKN046/// 13/12 Q1019 TEMPO 4000 RA BKN008
NZAA 050300Z AUTO 01009KT 9000 -RA FEW012/// BKN020/// OVC060/// 14/13 Q1020 RERA TEMPO 4000 RA BKN008
NZAA 050230Z AUTO 01010KT 8000 -RA FEW009/// SCT013/// OVC043/// 14/13 Q1020 RERA TEMPO 6000 RA
NZAA 050200Z AUTO 03009KT 9000 RA SCT019/// BKN030/// BKN039/// 14/13 Q1021 TEMPO 6000 RA
NZAA 050130Z AUTO 05008KT 020V090 9999 -RA FEW020/// BKN035/// OVC055/// 14/13 Q1021 TEMPO 6000 RA
NZAA 050100Z AUTO 03009KT 9999 -RA BKN029/// BKN035/// OVC070/// 14/12 Q1022 TEMPO 6000 RA
NZAA 050030Z AUTO 05008KT 9999 FEW032/// SCT070/// OVC090/// 14/12 Q1022 TEMPO 6000 RA
NZAA 050000Z AUTO 06009KT 9999 -RA FEW075/// BKN100/// 13/12 Q1022 TEMPO 6000 RA
NZAA 042330Z AUTO 04004KT 9999 -RA FEW021/// BKN041/// BKN100/// 13/12 Q1024 NOSIG
NZAA 042300Z AUTO 08001KT 9999 -RA SCT028/// BKN038/// BKN090/// 12/11 Q1024 NOSIG
NZAA 042230Z AUTO 15001KT 9999 -RA FEW043/// SCT070/// OVC080/// 12/11 Q1024 NOSIG
NZAA 042200Z AUTO 23003KT 9999 FEW041/// BKN095/// 12/11 Q1025 NOSIG
NZAA 042130Z AUTO 08002KT 9999 OVC090/// 12/10 Q1024 NOSIG
NZAA 042100Z AUTO 34002KT 9999 -RA FEW047/// BKN085/// 11/10 Q1024 NOSIG
NZAA 042030Z AUTO 10001KT 9999 FEW090/// 11/09 Q1024 NOSIG
NZAA 042000Z AUTO 02001KT 9999 OVC100/// 10/09 Q1024 NOSIG
NZAA 041930Z AUTO 05001KT 9999 NCD 10/09 Q1025 TEMPO 6000 RA